Time;durP1;ratioP1;P1;durP2;ratioP2;P2;SDS_P1;SDS_P2;PMS_P1;PMS_P2;Temp;Humidity;BMP_temperature;BMP_pressure;BME280_temperature;BME280_humidity;BME280_pressure;Samples;Min_cycle;Max_cycle;Signal;HPM_P1;HPM_P2
2022/03/24 00:01:42;;;;;;;42.28;17.65;;;256.90;1356.80;;;;;;5039060;28;19905;-75
2022/03/24 00:04:08;;;;;;;31.58;15.65;;;281.60;1356.80;;;;;;5040068;28;20017;-73
2022/03/24 00:06:34;;;;;;;38.95;15.90;;;281.70;1331.20;;;;;;5033161;28;20026;-75
2022/03/24 00:09:00;;;;;;;40.20;15.40;;;281.90;1305.60;;;;;;5066389;28;20045;-74
2022/03/24 00:11:26;;;;;;;32.33;16.20;;;281.90;1305.60;;;;;;5039663;28;20021;-74
2022/03/24 00:13:52;;;;;;;31.83;16.02;;;281.80;1305.60;;;;;;5052652;28;20032;-74
2022/03/24 00:16:19;;;;;;;;;;;281.70;1305.60;;;;;;5054689;28;20020;-74
2022/03/24 00:18:45;;;;;;;29.13;16.10;;;281.70;1305.60;;;;;;5054312;28;19904;-75
2022/03/24 00:21:12;;;;;;;43.05;15.70;;;281.60;1331.20;;;;;;5052988;28;20120;-75
2022/03/24 00:23:37;;;;;;;31.17;15.68;;;256.90;1305.60;;;;;;5054419;28;20025;-73
2022/03/24 00:26:03;;;;;;;38.28;17.02;;;256.90;1305.60;;;;;;5049432;28;20087;-74
2022/03/24 00:28:31;;;;;;;;;;;256.90;1305.60;;;;;;5053441;28;20045;-74
2022/03/24 00:30:57;;;;;;;36.97;14.85;;;256.90;1305.60;;;;;;5053989;28;19995;-74
2022/03/24 00:33:23;;;;;;;34.85;13.90;;;256.90;1331.20;;;;;;5054137;28;20055;-74
2022/03/24 00:35:50;;;;;;;34.83;17.52;;;256.90;1331.20;;;;;;5053833;28;20066;-82
2022/03/24 00:38:16;;;;;;;27.58;13.93;;;256.90;1331.20;;;;;;5053038;28;20028;-74
2022/03/24 00:40:43;;;;;;;33.13;15.05;;;256.90;1331.20;;;;;;5052671;28;20025;-74
2022/03/24 00:43:09;;;;;;;30.95;15.25;;;256.80;1331.20;;;;;;5053834;28;20024;-74
2022/03/24 00:45:35;;;;;;;30.77;15.05;;;256.80;1305.60;;;;;;5053708;28;20025;-74
2022/03/24 00:48:00;;;;;;;31.98;14.70;;;256.90;1305.60;;;;;;5053731;28;20036;-74
2022/03/24 00:50:26;;;;;;;;;;;256.90;1305.60;;;;;;5054110;28;20380;-74
2022/03/24 00:52:52;;;;;;;35.13;14.85;;;256.90;1305.60;;;;;;5053004;28;19986;-74
2022/03/24 00:55:19;;;;;;;;;;;281.60;1331.20;;;;;;5052640;28;20036;-74
2022/03/24 00:57:49;;;;;;;33.85;14.00;;;281.60;1305.60;;;;;;5052244;28;20345;-74
2022/03/24 01:00:16;;;;;;;40.67;14.88;;;256.90;1305.60;;;;;;5052106;28;20087;-73
2022/03/24 01:02:48;;;;;;;37.58;13.75;;;256.80;1305.60;;;;;;5050954;28;20070;-74
2022/03/24 01:05:16;;;;;;;30.85;14.23;;;256.90;1305.60;;;;;;5053528;28;20017;-74
2022/03/24 01:07:43;;;;;;;32.33;14.27;;;256.80;1305.60;;;;;;5040367;28;20022;-73
2022/03/24 01:10:11;;;;;;;29.95;13.75;;;256.80;1280.00;;;;;;5048636;28;20025;-73
2022/03/24 01:12:39;;;;;;;30.85;12.95;;;256.90;1280.00;;;;;;5052121;28;20026;-74
2022/03/24 01:15:07;;;;;;;28.10;13.77;;;256.80;1280.00;;;;;;5050762;28;20477;-74
2022/03/24 01:17:34;;;;;;;25.02;13.43;;;256.80;1280.00;;;;;;5052016;28;20070;-73
2022/03/24 01:20:00;;;;;;;28.60;14.13;;;256.80;1280.00;;;;;;5051889;28;20024;-74
2022/03/24 01:22:26;;;;;;;35.45;15.73;;;256.90;1280.00;;;;;;5053187;28;20025;-73
2022/03/24 01:24:52;;;;;;;32.83;13.60;;;256.90;1280.00;;;;;;5053154;28;20013;-74
2022/03/24 01:27:18;;;;;;;31.58;14.80;;;256.80;1280.00;;;;;;5051517;28;20061;-74
2022/03/24 01:29:44;;;;;;;31.33;15.00;;;256.90;1280.00;;;;;;5052881;28;20033;-73
2022/03/24 01:32:10;;;;;;;33.30;14.57;;;256.90;1280.00;;;;;;5053021;28;20520;-74
2022/03/24 01:34:37;;;;;;;31.45;14.77;;;281.60;1305.60;;;;;;5051758;28;20036;-74
2022/03/24 01:37:05;;;;;;;32.13;13.55;;;256.90;1280.00;;;;;;5049956;28;20485;-74
2022/03/24 01:39:32;;;;;;;38.65;15.57;;;256.90;1280.00;;;;;;5051733;28;20378;-73
2022/03/24 01:41:59;;;;;;;34.50;15.80;;;256.90;1280.00;;;;;;5051842;28;20039;-74
2022/03/24 01:44:27;;;;;;;33.58;16.02;;;256.80;1280.00;;;;;;5050153;28;20067;-74
2022/03/24 01:46:59;;;;;;;36.50;17.55;;;256.90;1280.00;;;;;;5052155;28;20349;-74
2022/03/24 01:49:26;;;;;;;35.00;16.70;;;256.80;1280.00;;;;;;5051441;28;20029;-74
2022/03/24 01:51:53;;;;;;;32.35;16.25;;;256.70;1280.00;;;;;;5051611;28;20032;-74
2022/03/24 01:54:23;;;;;;;35.08;17.67;;;256.70;1280.00;;;;;;5051522;28;20079;-75
2022/03/24 01:56:49;;;;;;;34.53;15.98;;;256.50;1305.60;;;;;;5048948;28;20025;-75
2022/03/24 01:59:17;;;;;;;37.53;14.77;;;256.30;1305.60;;;;;;5052740;28;20024;-73
2022/03/24 02:01:44;;;;;;;32.83;15.95;;;256.20;1305.60;;;;;;5051294;28;20083;-73
2022/03/24 02:04:11;;;;;;;35.88;16.63;;;256.40;1305.60;;;;;;5052590;28;20021;-75
2022/03/24 02:06:37;;;;;;;36.47;16.92;;;256.40;1305.60;;;;;;5052759;28;20480;-73
2022/03/24 02:09:04;;;;;;;27.55;15.23;;;256.30;1305.60;;;;;;5051225;28;20071;-74
2022/03/24 02:11:34;;;;;;;35.42;16.95;;;256.10;1331.20;;;;;;5052646;28;20024;-74
2022/03/24 02:14:01;;;;;;;33.92;15.02;;;231.20;1356.80;;;;;;5052738;28;20399;-74
2022/03/24 02:16:34;;;;;;;32.22;15.25;;;231.10;1382.40;;;;;;5049782;28;20473;-73
2022/03/24 02:19:22;;;;;;;30.13;15.70;;;230.90;1408.00;;;;;;5051275;28;20048;-74
2022/03/24 02:21:49;;;;;;;33.92;17.42;;;230.90;1408.00;;;;;;5052456;28;20100;-74
2022/03/24 02:24:18;;;;;;;38.25;15.32;;;230.80;1408.00;;;;;;5051245;28;20017;-74
2022/03/24 02:26:46;;;;;;;42.35;17.58;;;230.70;1433.60;;;;;;5050911;28;20060;-74
2022/03/24 02:29:16;;;;;;;30.35;14.45;;;230.70;1433.60;;;;;;5051042;28;20044;-74
2022/03/24 02:31:45;;;;;;;36.72;15.93;;;230.60;1459.20;;;;;;5050695;28;20052;-75
2022/03/24 02:37:02;;;;;;;36.90;15.57;;;230.60;1459.20;;;;;;5051894;28;20027;-74
2022/03/24 02:39:28;;;;;;;36.25;16.75;;;230.50;1459.20;;;;;;5048543;28;20029;-74
2022/03/24 02:41:56;;;;;;;34.60;16.38;;;230.50;1459.20;;;;;;5052320;28;20436;-73
2022/03/24 02:44:24;;;;;;;29.65;15.65;;;230.40;1484.80;;;;;;5052280;28;20025;-74
2022/03/24 02:46:51;;;;;;;31.83;14.50;;;230.50;1459.20;;;;;;5049767;28;20010;-73
2022/03/24 02:49:18;;;;;;;33.58;16.67;;;230.50;1459.20;;;;;;5052182;28;20029;-73
2022/03/24 02:51:44;;;;;;;37.53;15.88;;;230.50;1459.20;;;;;;5052268;28;20013;-74
2022/03/24 02:54:11;;;;;;;37.38;15.98;;;230.60;1433.60;;;;;;5050992;28;20056;-73
2022/03/24 02:56:38;;;;;;;46.05;19.65;;;230.80;1408.00;;;;;;5050769;28;20013;-74
2022/03/24 02:59:06;;;;;;;42.83;20.75;;;230.90;1408.00;;;;;;5054368;28;20036;-74
2022/03/24 03:01:37;;;;;;;39.45;18.98;;;230.90;1382.40;;;;;;5054478;28;20021;-73
2022/03/24 03:04:05;;;;;;;36.70;17.30;;;231.00;1356.80;;;;;;5054605;28;20029;-74
2022/03/24 03:06:33;;;;;;;38.33;20.45;;;231.10;1356.80;;;;;;5054508;28;20029;-74
2022/03/24 03:09:01;;;;;;;49.35;20.75;;;231.20;1331.20;;;;;;5054510;28;20500;-74
2022/03/24 03:11:30;;;;;;;43.42;21.10;;;231.30;1331.20;;;;;;5055610;28;20017;-74
2022/03/24 03:13:56;;;;;;;52.70;23.33;;;231.30;1331.20;;;;;;5051515;28;20432;-74
2022/03/24 03:16:22;;;;;;;44.05;18.85;;;231.30;1331.20;;;;;;5055350;28;20484;-74
2022/03/24 03:18:48;;;;;;;41.00;20.50;;;256.00;1305.60;;;;;;5055573;28;20465;-74
2022/03/24 03:21:16;;;;;;;37.63;18.70;;;231.30;1305.60;;;;;;5055463;28;20020;-74
2022/03/24 03:23:43;;;;;;;36.63;19.83;;;231.30;1331.20;;;;;;5054099;28;20025;-74
2022/03/24 03:26:10;;;;;;;35.72;18.83;;;231.30;1331.20;;;;;;5051059;28;20489;-74
2022/03/24 03:28:36;;;;;;;34.67;16.90;;;256.00;1331.20;;;;;;5053967;28;20040;-74
2022/03/24 03:31:02;;;;;;;42.65;18.52;;;231.30;1331.20;;;;;;5055193;28;20021;-74
2022/03/24 03:33:28;;;;;;;;;;;231.30;1331.20;;;;;;5055591;28;20468;-74
2022/03/24 03:35:54;;;;;;;33.70;16.40;;;231.10;1331.20;;;;;;5053951;28;19951;-74
2022/03/24 03:38:20;;;;;;;;;;;231.20;1331.20;;;;;;5055496;28;20101;-74
2022/03/24 03:40:46;;;;;;;28.10;15.25;;;231.20;1331.20;;;;;;5053967;28;19905;-74
2022/03/24 03:43:14;;;;;;;37.05;16.85;;;231.00;1356.80;;;;;;5055067;28;20025;-74
2022/03/24 03:45:43;;;;;;;33.30;17.10;;;230.80;1382.40;;;;;;5055034;28;20017;-74
2022/03/24 03:48:09;;;;;;;33.65;17.00;;;230.80;1382.40;;;;;;5049769;28;20029;-73
2022/03/24 03:50:36;;;;;;;36.58;16.85;;;230.60;1408.00;;;;;;5051593;28;20032;-73
2022/03/24 03:53:02;;;;;;;40.00;16.55;;;230.60;1408.00;;;;;;5055005;28;20388;-75
2022/03/24 03:55:28;;;;;;;;;;;230.50;1433.60;;;;;;5055113;28;20020;-74
2022/03/24 03:57:55;;;;;;;36.38;17.80;;;230.40;1433.60;;;;;;5053174;28;19920;-74
2022/03/24 04:03:05;;;;;;;38.95;17.58;;;205.70;1484.80;;;;;;5053835;28;20032;-74
2022/03/24 04:05:31;;;;;;;;;;;205.60;1484.80;;;;;;5053866;28;20381;-74
2022/03/24 04:07:57;;;;;;;44.30;17.13;;;205.70;1484.80;;;;;;5054587;28;20345;-74
2022/03/24 04:10:22;;;;;;;;;;;205.60;1484.80;;;;;;5052949;28;20051;-74
2022/03/24 04:12:50;;;;;;;34.72;16.35;;;205.60;1484.80;;;;;;5054418;28;20303;-74
2022/03/24 04:15:16;;;;;;;38.10;16.83;;;205.70;1459.20;;;;;;5053031;28;20449;-74
2022/03/24 04:17:42;;;;;;;;;;;205.70;1484.80;;;;;;5054794;28;20091;-74
2022/03/24 04:20:08;;;;;;;46.05;17.05;;;205.70;1484.80;;;;;;5053020;28;19905;-74
2022/03/24 04:22:35;;;;;;;35.95;17.27;;;205.60;1484.80;;;;;;5054285;28;20039;-73
2022/03/24 04:25:02;;;;;;;36.70;18.23;;;205.50;1510.40;;;;;;5052848;28;20087;-74
2022/03/24 04:27:28;;;;;;;32.75;17.85;;;205.50;1510.40;;;;;;5052934;28;20053;-73
2022/03/24 04:29:54;;;;;;;;;;;205.60;1536.00;;;;;;5054457;28;20025;-74
2022/03/24 04:32:21;;;;;;;33.78;15.45;;;205.40;1536.00;;;;;;5052717;28;19905;-74
2022/03/24 04:34:46;;;;;;;31.17;16.30;;;205.50;1536.00;;;;;;5054278;28;20051;-73
2022/03/24 04:37:12;;;;;;;;;;;205.40;1561.60;;;;;;5054275;28;20040;-74
2022/03/24 04:39:38;;;;;;;30.45;16.42;;;205.40;1561.60;;;;;;5052646;28;19905;-73
2022/03/24 04:42:06;;;;;;;;;;;205.30;1587.20;;;;;;5052816;28;20458;-74
2022/03/24 04:44:33;;;;;;;36.47;17.75;;;205.30;1587.20;;;;;;5052514;28;20418;-74
2022/03/24 04:46:59;;;;;;;37.90;18.02;;;205.30;1587.20;;;;;;5053690;28;20059;-74
2022/03/24 04:49:26;;;;;;;;;;;205.30;1587.20;;;;;;5054176;28;20481;-73
2022/03/24 04:51:53;;;;;;;33.53;18.15;;;205.30;1612.80;;;;;;5049750;28;20448;-74
2022/03/24 04:54:19;;;;;;;35.60;18.70;;;205.40;1612.80;;;;;;5052412;28;20108;-74
2022/03/24 04:56:45;;;;;;;41.17;18.63;;;205.50;1612.80;;;;;;5052195;28;20103;-73
2022/03/24 04:59:12;;;;;;;35.42;19.40;;;205.50;1587.20;;;;;;5053587;28;20024;-74
2022/03/24 05:01:38;;;;;;;36.15;18.45;;;205.70;1587.20;;;;;;5052051;28;20021;-74
2022/03/24 05:04:04;;;;;;;;;;;205.70;1561.60;;;;;;5052960;28;20033;-73
2022/03/24 05:06:31;;;;;;;33.75;17.90;;;205.50;1561.60;;;;;;5052351;28;20312;-73
2022/03/24 05:08:57;;;;;;;39.53;18.55;;;205.50;1561.60;;;;;;5053309;28;20021;-73
2022/03/24 05:11:23;;;;;;;;;;;205.50;1561.60;;;;;;5053835;28;20415;-73
2022/03/24 05:13:51;;;;;;;45.72;18.00;;;205.40;1561.60;;;;;;5051677;28;19905;-74
2022/03/24 05:16:18;;;;;;;42.15;18.80;;;205.30;1587.20;;;;;;5050841;28;20497;-73
2022/03/24 05:18:43;;;;;;;36.35;18.70;;;205.30;1587.20;;;;;;5051784;28;20120;-74
2022/03/24 05:21:09;;;;;;;;;;;205.30;1587.20;;;;;;5051926;28;20116;-74
2022/03/24 05:23:35;;;;;;;38.65;18.13;;;205.40;1587.20;;;;;;5051603;28;19920;-74
2022/03/24 05:26:01;;;;;;;;;;;205.40;1587.20;;;;;;5052033;28;20503;-73
2022/03/24 05:28:27;;;;;;;32.85;15.75;;;205.40;1587.20;;;;;;5051731;28;19921;-74
2022/03/24 05:30:53;;;;;;;;;;;205.50;1587.20;;;;;;5053458;28;20024;-73
2022/03/24 05:33:19;;;;;;;33.90;16.60;;;205.50;1587.20;;;;;;5051676;28;19905;-74
2022/03/24 05:35:44;;;;;;;;;;;205.50;1561.60;;;;;;5053723;28;20524;-73
2022/03/24 05:38:10;;;;;;;36.60;17.50;;;205.60;1536.00;;;;;;5051680;28;19905;-74
2022/03/24 05:40:35;;;;;;;;;;;205.60;1536.00;;;;;;5053337;28;20024;-74
2022/03/24 05:43:03;;;;;;;37.42;16.35;;;205.70;1536.00;;;;;;5052993;28;20368;-73
2022/03/24 05:45:29;;;;;;;36.50;19.77;;;205.70;1536.00;;;;;;5051729;28;20017;-74
2022/03/24 05:47:54;;;;;;;37.17;18.23;;;230.40;1536.00;;;;;;5052521;28;20029;-74
2022/03/24 05:50:20;;;;;;;;;;;230.60;1510.40;;;;;;5053314;28;20033;-74
2022/03/24 05:52:49;;;;;;;31.25;16.35;;;230.70;1484.80;;;;;;5051511;28;19904;-74
2022/03/24 05:55:16;;;;;;;33.15;17.83;;;230.80;1484.80;;;;;;5052537;28;20017;-73
2022/03/24 05:57:44;;;;;;;34.53;16.70;;;230.90;1484.80;;;;;;5052760;28;20036;-74
2022/03/24 06:00:10;;;;;;;32.63;14.77;;;230.90;1484.80;;;;;;5038030;28;20053;-77
2022/03/24 06:02:36;;;;;;;33.00;15.70;;;231.00;1484.80;;;;;;5049437;28;20420;-73
2022/03/24 06:05:05;;;;;;;31.17;16.17;;;231.20;1484.80;;;;;;5051485;28;20025;-74
2022/03/24 06:07:33;;;;;;;33.35;15.15;;;231.30;1484.80;;;;;;5051428;28;20021;-73
2022/03/24 06:09:58;;;;;;;30.70;16.88;;;256.10;1459.20;;;;;;5049916;28;20032;-73
2022/03/24 06:12:25;;;;;;;26.85;16.33;;;256.20;1459.20;;;;;;5052618;28;20020;-74
2022/03/24 06:14:51;;;;;;;33.17;16.50;;;256.20;1484.80;;;;;;5051262;28;20017;-73
2022/03/24 06:17:19;;;;;;;31.45;16.38;;;256.20;1484.80;;;;;;5051083;28;20079;-74
2022/03/24 06:19:47;;;;;;;28.33;14.30;;;256.20;1510.40;;;;;;5051511;28;20017;-76
2022/03/24 06:22:13;;;;;;;31.50;16.38;;;256.30;1510.40;;;;;;5052114;28;20028;-74
2022/03/24 06:24:39;;;;;;;29.70;15.65;;;256.40;1510.40;;;;;;5052208;28;20025;-74
2022/03/24 06:27:05;;;;;;;26.38;15.23;;;256.50;1510.40;;;;;;5051876;28;20037;-76
2022/03/24 06:29:31;;;;;;;34.42;15.80;;;256.60;1510.40;;;;;;5052055;28;20036;-77
2022/03/24 06:31:57;;;;;;;34.40;16.80;;;256.80;1484.80;;;;;;5052750;28;20567;-74
2022/03/24 06:34:25;;;;;;;35.45;16.73;;;281.60;1510.40;;;;;;5054426;28;20115;-74
2022/03/24 06:36:51;;;;;;;27.15;15.68;;;281.70;1484.80;;;;;;5056733;28;20462;-77
2022/03/24 06:39:17;;;;;;;33.80;16.70;;;281.70;1484.80;;;;;;5056465;28;20032;-75
2022/03/24 06:41:43;;;;;;;29.83;16.08;;;281.90;1484.80;;;;;;5056729;28;20032;-76
2022/03/24 06:44:09;;;;;;;33.00;16.42;;;282.00;1459.20;;;;;;5056687;28;20025;-75
2022/03/24 06:46:36;;;;;;;29.20;16.38;;;282.20;1433.60;;;;;;5056238;28;20025;-74
2022/03/24 06:49:03;;;;;;;30.38;16.08;;;282.40;1408.00;;;;;;5055061;28;20045;-76
2022/03/24 06:51:30;;;;;;;31.02;16.35;;;307.20;1433.60;;;;;;5056613;28;20056;-77
2022/03/24 06:53:56;;;;;;;41.38;17.83;;;307.30;1408.00;;;;;;5056727;28;20477;-75
2022/03/24 06:56:22;;;;;;;31.50;17.73;;;307.50;1408.00;;;;;;5056257;28;20036;-75
2022/03/24 06:58:48;;;;;;;39.50;16.90;;;307.70;1382.40;;;;;;5055268;28;20025;-75
2022/03/24 07:01:14;;;;;;;27.42;14.73;;;308.00;1356.80;;;;;;5056259;28;20499;-75
2022/03/24 07:03:40;;;;;;;31.83;16.00;;;308.10;1356.80;;;;;;5056100;28;20104;-75
2022/03/24 07:06:06;;;;;;;23.02;14.10;;;332.80;1356.80;;;;;;5056403;28;20017;-75
2022/03/24 07:08:32;;;;;;;32.95;16.77;;;333.00;1356.80;;;;;;5055007;28;20040;-74
2022/03/24 07:10:58;;;;;;;;;;;333.20;1356.80;;;;;;5055281;28;20379;-76
2022/03/24 07:13:24;;;;;;;29.60;15.77;;;333.30;1356.80;;;;;;5054896;28;19905;-76
2022/03/24 07:15:50;;;;;;;29.92;14.98;;;333.60;1356.80;;;;;;5054861;28;20108;-75
2022/03/24 07:18:16;;;;;;;30.10;15.85;;;333.60;1331.20;;;;;;5055868;28;20442;-75
2022/03/24 07:20:42;;;;;;;27.48;15.23;;;333.70;1331.20;;;;;;5054621;28;20025;-75
2022/03/24 07:23:09;;;;;;;31.98;15.63;;;358.40;1331.20;;;;;;5055760;28;20021;-74
2022/03/24 07:25:36;;;;;;;26.45;14.40;;;358.70;1331.20;;;;;;5054225;28;20037;-75
2022/03/24 07:28:05;;;;;;;28.45;14.55;;;358.80;1305.60;;;;;;5054403;28;20038;-75
2022/03/24 07:30:31;;;;;;;28.48;14.63;;;358.90;1280.00;;;;;;5055796;28;20031;-74
2022/03/24 07:32:59;;;;;;;34.00;14.75;;;359.20;1280.00;;;;;;5054292;28;20021;-75
2022/03/24 07:35:27;;;;;;;37.35;20.17;;;359.00;1305.60;;;;;;5054471;28;20051;-75
2022/03/24 07:37:53;;;;;;;27.92;14.70;;;359.20;1305.60;;;;;;5054429;28;20120;-76
2022/03/24 07:40:22;;;;;;;27.05;14.43;;;359.30;1280.00;;;;;;5054584;28;20107;-76
2022/03/24 07:42:53;;;;;;;27.30;13.45;;;384.00;1254.40;;;;;;5055560;28;20041;-76
2022/03/24 07:45:23;;;;;;;20.70;11.70;;;384.00;1228.80;;;;;;5054371;28;20040;-74
2022/03/24 07:48:07;;;;;;;23.73;12.68;;;384.20;1228.80;;;;;;5054570;28;20033;-77
2022/03/24 07:50:34;;;;;;;22.40;11.70;;;384.40;1203.20;;;;;;5055364;28;20594;-75
2022/03/24 07:53:09;;;;;;;23.95;12.68;;;384.40;1177.60;;;;;;5055359;28;20021;-75
2022/03/24 07:55:38;;;;;;;26.42;12.38;;;384.60;1177.60;;;;;;5053710;28;20048;-75
2022/03/24 07:58:04;;;;;;;22.10;10.68;;;384.70;1203.20;;;;;;5053812;28;20028;-74
2022/03/24 08:00:31;;;;;;;23.23;11.95;;;384.80;1177.60;;;;;;5055106;28;20099;-74
2022/03/24 08:02:56;;;;;;;21.98;11.25;;;384.90;1152.00;;;;;;5054657;28;20021;-77
2022/03/24 08:05:22;;;;;;;21.80;11.02;;;409.60;1177.60;;;;;;5053363;28;20025;-74
2022/03/24 08:07:48;;;;;;;23.95;12.23;;;409.60;1177.60;;;;;;5054569;28;20017;-75
2022/03/24 08:10:13;;;;;;;24.13;11.50;;;409.70;1177.60;;;;;;5054749;28;20539;-74
2022/03/24 08:12:39;;;;;;;28.63;11.55;;;409.80;1177.60;;;;;;5055007;28;20032;-75
2022/03/24 08:15:05;;;;;;;22.75;10.60;;;409.80;1177.60;;;;;;5055030;28;20479;-74
2022/03/24 08:17:31;;;;;;;25.30;12.23;;;409.90;1177.60;;;;;;5053383;28;20029;-76
2022/03/24 08:19:56;;;;;;;19.08;11.32;;;410.00;1152.00;;;;;;5052048;28;20028;-75
2022/03/24 08:22:22;;;;;;;19.55;11.45;;;410.00;1152.00;;;;;;5052333;28;20129;-76
2022/03/24 08:24:48;;;;;;;24.88;10.50;;;410.00;1152.00;;;;;;5050936;28;20078;-74
2022/03/24 08:27:14;;;;;;;31.02;14.05;;;410.10;1126.40;;;;;;5052739;28;20049;-74
2022/03/24 08:29:40;;;;;;;30.75;11.77;;;410.20;1126.40;;;;;;5052965;28;20099;-77
2022/03/24 08:32:06;;;;;;;21.48;11.45;;;410.20;1126.40;;;;;;5051817;28;20028;-73
2022/03/24 08:34:32;;;;;;;27.90;12.70;;;410.20;1126.40;;;;;;5053089;28;20481;-76
2022/03/24 08:36:57;;;;;;;24.50;12.07;;;410.30;1126.40;;;;;;5051973;28;20023;-75
2022/03/24 08:39:23;;;;;;;20.88;10.93;;;410.40;1126.40;;;;;;5051695;28;20397;-75
2022/03/24 08:41:49;;;;;;;23.63;12.38;;;435.50;1126.40;;;;;;5053047;28;20534;-74
2022/03/24 08:44:15;;;;;;;23.88;14.45;;;410.50;1126.40;;;;;;5052450;28;20108;-75
2022/03/24 08:46:40;;;;;;;29.08;13.23;;;435.20;1100.80;;;;;;5053792;28;20025;-74
2022/03/24 08:49:06;;;;;;;27.73;14.50;;;435.30;1100.80;;;;;;5051770;28;20048;-74
2022/03/24 08:51:32;;;;;;;28.55;11.88;;;435.30;1075.20;;;;;;5053184;28;20070;-73
2022/03/24 08:53:58;;;;;;;28.25;13.55;;;435.40;1075.20;;;;;;5053270;28;20040;-73
2022/03/24 08:56:23;;;;;;;26.83;12.55;;;435.50;1075.20;;;;;;5053115;28;20029;-72
2022/03/24 08:58:50;;;;;;;20.83;12.20;;;435.60;1075.20;;;;;;5052252;28;20021;-73
2022/03/24 09:01:15;;;;;;;30.33;11.73;;;435.80;1100.80;;;;;;5053579;28;20385;-78
2022/03/24 09:03:41;;;;;;;16.63;10.10;;;435.90;1075.20;;;;;;5053294;28;20020;-74
2022/03/24 09:06:07;;;;;;;29.90;10.90;;;435.90;1075.20;;;;;;5052360;28;20108;-77
2022/03/24 09:08:33;;;;;;;29.00;10.88;;;460.80;1100.80;;;;;;5052462;28;20025;-75
2022/03/24 09:10:59;;;;;;;24.00;11.25;;;460.80;1075.20;;;;;;5053282;28;20028;-79
2022/03/24 09:13:25;;;;;;;22.27;10.18;;;461.00;1075.20;;;;;;5050591;28;20025;-73
2022/03/24 09:15:50;;;;;;;19.35;9.93;;;461.10;1024.00;;;;;;5051885;28;20071;-75
2022/03/24 09:18:16;;;;;;;21.85;10.02;;;461.10;998.40;;;;;;5050810;28;20025;-79
2022/03/24 09:20:42;;;;;;;20.58;10.07;;;461.20;998.40;;;;;;5051171;28;20032;-74
2022/03/24 09:23:08;;;;;;;25.42;10.75;;;461.20;998.40;;;;;;5051649;28;20017;-75
2022/03/24 09:25:34;;;;;;;35.65;9.95;;;461.30;972.80;;;;;;5052794;28;20112;-78
2022/03/24 09:28:00;;;;;;;19.30;9.90;;;461.40;947.20;;;;;;5050620;28;20124;-76
2022/03/24 09:30:25;;;;;;;19.38;9.35;;;461.50;972.80;;;;;;5050457;28;20025;-75
2022/03/24 09:32:52;;;;;;;22.60;10.18;;;461.60;947.20;;;;;;5049953;28;20485;-76
2022/03/24 09:35:18;;;;;;;19.60;8.93;;;461.70;947.20;;;;;;5052245;28;20017;-75
2022/03/24 09:37:44;;;;;;;20.15;10.15;;;486.40;896.00;;;;;;5050839;28;20440;-76
2022/03/24 09:40:11;;;;;;;17.60;8.13;;;486.50;896.00;;;;;;5052297;28;20036;-74
2022/03/24 09:42:38;;;;;;;21.92;9.95;;;486.60;844.80;;;;;;5052433;28;20074;-75
2022/03/24 09:45:06;;;;;;;17.52;7.78;;;486.70;844.80;;;;;;5050537;28;20032;-76
2022/03/24 09:47:33;;;;;;;18.77;7.43;;;486.70;819.20;;;;;;5049318;28;20477;-74
2022/03/24 09:49:59;;;;;;;13.35;5.95;;;486.80;793.60;;;;;;5052077;28;20033;-76
2022/03/24 09:52:25;;;;;;;23.70;7.95;;;486.90;768.00;;;;;;5050380;28;20013;-77
2022/03/24 09:54:52;;;;;;;14.43;9.00;;;487.00;793.60;;;;;;5050578;28;20044;-76
2022/03/24 09:57:18;;;;;;;28.50;9.20;;;487.10;793.60;;;;;;5051995;28;20016;-76
2022/03/24 09:59:44;;;;;;;25.50;10.73;;;487.20;819.20;;;;;;5049849;28;20029;-75
2022/03/24 10:02:10;;;;;;;18.85;8.43;;;512.00;819.20;;;;;;5051804;28;20151;-76
2022/03/24 10:04:46;;;;;;;17.42;8.23;;;512.10;819.20;;;;;;5051812;28;20021;-76
2022/03/24 10:07:12;;;;;;;;;;;512.20;819.20;;;;;;5048686;28;20120;-76
2022/03/24 10:09:46;;;;;;;16.20;8.57;;;512.40;793.60;;;;;;5053987;28;20015;-75
2022/03/24 10:12:23;;;;;;;31.33;19.25;;;512.50;793.60;;;;;;5054836;28;20029;-75
2022/03/24 10:15:15;;;;;;;29.13;15.45;;;512.60;793.60;;;;;;5052079;28;20021;-75
2022/03/24 10:17:52;;;;;;;17.40;9.73;;;512.70;819.20;;;;;;5052833;28;20477;-82
2022/03/24 10:20:19;;;;;;;24.05;9.80;;;512.90;793.60;;;;;;5057198;28;20024;-76
2022/03/24 10:22:55;;;;;;;23.27;13.65;;;537.60;819.20;;;;;;5056749;28;20112;-75
2022/03/24 10:25:39;;;;;;;20.50;9.07;;;537.70;793.60;;;;;;5054297;28;20082;-76
2022/03/24 10:28:27;;;;;;;26.33;9.55;;;537.90;819.20;;;;;;5053584;28;20074;-75
2022/03/24 10:31:03;;;;;;;16.92;9.10;;;538.00;793.60;;;;;;5054914;28;20033;-77
2022/03/24 10:33:34;;;;;;;42.20;9.80;;;538.20;793.60;;;;;;5056530;28;20024;-77
2022/03/24 10:36:27;;;;;;;24.23;9.27;;;538.30;768.00;;;;;;5050862;28;20021;-77
2022/03/24 10:38:56;;;;;;;20.60;8.48;;;538.50;768.00;;;;;;5053425;28;20547;-76
2022/03/24 10:41:31;;;;;;;17.40;8.50;;;563.20;768.00;;;;;;5055779;28;20029;-76
2022/03/24 10:44:00;;;;;;;14.25;8.57;;;563.40;768.00;;;;;;5055613;28;20063;-75
2022/03/24 10:46:33;;;;;;;18.45;9.73;;;563.50;742.40;;;;;;5055490;28;20036;-75
2022/03/24 10:49:17;;;;;;;14.77;7.43;;;563.50;793.60;;;;;;5056597;28;20393;-76
2022/03/24 10:51:46;;;;;;;19.55;8.75;;;563.70;742.40;;;;;;5055230;28;20028;-76
2022/03/24 10:54:38;;;;;;;19.10;8.35;;;563.90;742.40;;;;;;5055340;28;20477;-75
2022/03/24 10:57:08;;;;;;;19.88;8.75;;;564.00;742.40;;;;;;5056481;28;20055;-77
2022/03/24 10:59:40;;;;;;;17.63;8.25;;;564.10;716.80;;;;;;5055740;28;20025;-76
2022/03/24 11:02:08;;;;;;;16.60;7.68;;;588.80;716.80;;;;;;5056329;28;20025;-76
2022/03/24 11:04:33;;;;;;;13.10;7.35;;;589.00;716.80;;;;;;5054580;28;20589;-78
2022/03/24 11:06:59;;;;;;;12.60;7.00;;;589.10;742.40;;;;;;5054671;28;20111;-77
2022/03/24 11:09:31;;;;;;;18.92;8.15;;;588.90;742.40;;;;;;5054954;28;20043;-77
2022/03/24 11:12:22;;;;;;;15.82;7.95;;;589.10;742.40;;;;;;5055144;28;20490;-77
2022/03/24 11:14:51;;;;;;;14.50;7.82;;;589.20;742.40;;;;;;5056207;28;20025;-78
2022/03/24 11:17:18;;;;;;;14.98;7.80;;;589.30;716.80;;;;;;5056405;28;20064;-77
2022/03/24 11:19:55;;;;;;;20.40;7.85;;;589.30;716.80;;;;;;5055962;28;20025;-77
2022/03/24 11:22:21;;;;;;;20.25;7.38;;;589.40;716.80;;;;;;5054302;28;20028;-78
2022/03/24 11:24:49;;;;;;;11.73;7.25;;;589.30;716.80;;;;;;5054185;28;20106;-77
2022/03/24 11:27:17;;;;;;;16.95;7.63;;;589.50;716.80;;;;;;5054461;28;20049;-77
2022/03/24 11:29:43;;;;;;;14.18;7.90;;;589.70;716.80;;;;;;5055930;28;20029;-77
2022/03/24 11:32:10;;;;;;;20.45;9.23;;;589.60;716.80;;;;;;5055826;28;20048;-81
2022/03/24 11:34:36;;;;;;;16.80;7.40;;;589.70;716.80;;;;;;5055770;28;20049;-76
2022/03/24 11:37:03;;;;;;;19.65;7.47;;;614.40;716.80;;;;;;5054502;28;20024;-80
2022/03/24 11:39:29;;;;;;;13.38;8.27;;;589.60;742.40;;;;;;5054467;28;20028;-77
2022/03/24 11:41:57;;;;;;;15.20;7.45;;;614.50;716.80;;;;;;5055701;28;20404;-77
2022/03/24 11:44:32;;;;;;;11.98;7.13;;;614.50;742.40;;;;;;5053973;28;20416;-75
2022/03/24 11:47:00;;;;;;;17.70;7.63;;;614.70;716.80;;;;;;5054149;28;20029;-75
2022/03/24 11:49:30;;;;;;;12.20;7.88;;;614.50;716.80;;;;;;5055289;28;20118;-77
2022/03/24 11:51:58;;;;;;;15.80;7.97;;;589.70;742.40;;;;;;5055387;28;20096;-75
2022/03/24 11:54:32;;;;;;;19.40;8.73;;;614.50;716.80;;;;;;5055314;28;20025;-76
2022/03/24 11:57:36;;;;;;;15.45;7.80;;;614.60;691.20;;;;;;5055452;28;20021;-76
2022/03/24 12:00:13;;;;;;;16.02;6.80;;;614.80;716.80;;;;;;5055387;28;20453;-75
2022/03/24 12:02:43;;;;;;;10.45;7.68;;;614.80;716.80;;;;;;5055342;28;20098;-76
2022/03/24 12:05:10;;;;;;;14.48;7.95;;;614.70;691.20;;;;;;5055224;28;20023;-76
2022/03/24 12:07:36;;;;;;;12.40;7.32;;;614.80;665.60;;;;;;5055149;28;20079;-75
2022/03/24 12:10:09;;;;;;;14.88;7.13;;;614.90;691.20;;;;;;5051947;28;20041;-75
2022/03/24 12:12:39;;;;;;;18.42;7.85;;;615.00;665.60;;;;;;5052873;28;20018;-74
2022/03/24 12:15:17;;;;;;;13.60;6.97;;;615.10;665.60;;;;;;5053995;28;20032;-75
2022/03/24 12:18:03;;;;;;;18.10;7.55;;;615.20;665.60;;;;;;5054372;28;20021;-75
2022/03/24 12:20:43;;;;;;;13.82;7.20;;;615.20;691.20;;;;;;5051096;28;20025;-75